sensor_id;sensor_type;location;lat;lon;timestamp;P1;durP1;ratioP1;P2;durP2;ratioP2
54993;SDS011;40891;47.242;8.648;2022-12-01T00:01:03;27.33;;;13.57;;
54993;SDS011;40891;47.242;8.648;2022-12-01T00:03:29;24.73;;;13.07;;
54993;SDS011;40891;47.242;8.648;2022-12-01T00:05:57;27.77;;;13.57;;
54993;SDS011;40891;47.242;8.648;2022-12-01T00:08:26;24.30;;;13.57;;
54993;SDS011;40891;47.242;8.648;2022-12-01T00:10:52;27.23;;;14.17;;
54993;SDS011;40891;47.242;8.648;2022-12-01T00:13:18;23.57;;;12.27;;
54993;SDS011;40891;47.242;8.648;2022-12-01T00:15:43;25.30;;;13.27;;
54993;SDS011;40891;47.242;8.648;2022-12-01T00:18:08;28.80;;;13.57;;
54993;SDS011;40891;47.242;8.648;2022-12-01T00:20:34;29.70;;;13.67;;
54993;SDS011;40891;47.242;8.648;2022-12-01T00:23:00;28.40;;;13.43;;
54993;SDS011;40891;47.242;8.648;2022-12-01T00:25:26;30.37;;;15.47;;
54993;SDS011;40891;47.242;8.648;2022-12-01T00:27:52;31.60;;;14.90;;
54993;SDS011;40891;47.242;8.648;2022-12-01T00:30:19;26.13;;;13.50;;
54993;SDS011;40891;47.242;8.648;2022-12-01T00:32:45;29.20;;;14.63;;
54993;SDS011;40891;47.242;8.648;2022-12-01T00:35:12;33.73;;;14.33;;
54993;SDS011;40891;47.242;8.648;2022-12-01T00:37:38;30.90;;;14.70;;
54993;SDS011;40891;47.242;8.648;2022-12-01T00:40:03;31.37;;;15.20;;
54993;SDS011;40891;47.242;8.648;2022-12-01T00:42:30;32.20;;;14.50;;
54993;SDS011;40891;47.242;8.648;2022-12-01T00:44:55;29.37;;;15.00;;
54993;SDS011;40891;47.242;8.648;2022-12-01T00:47:20;27.10;;;13.90;;
54993;SDS011;40891;47.242;8.648;2022-12-01T00:49:46;31.07;;;14.80;;
54993;SDS011;40891;47.242;8.648;2022-12-01T00:52:15;26.40;;;14.03;;
54993;SDS011;40891;47.242;8.648;2022-12-01T00:54:43;26.60;;;13.23;;
54993;SDS011;40891;47.242;8.648;2022-12-01T00:57:09;32.50;;;15.17;;
54993;SDS011;40891;47.242;8.648;2022-12-01T00:59:35;30.97;;;14.50;;
54993;SDS011;40891;47.242;8.648;2022-12-01T01:02:01;34.80;;;16.10;;
54993;SDS011;40891;47.242;8.648;2022-12-01T01:04:30;28.93;;;14.80;;
54993;SDS011;40891;47.242;8.648;2022-12-01T01:06:57;28.03;;;14.27;;
54993;SDS011;40891;47.242;8.648;2022-12-01T01:09:22;27.93;;;14.97;;
54993;SDS011;40891;47.242;8.648;2022-12-01T01:11:48;27.47;;;14.43;;
54993;SDS011;40891;47.242;8.648;2022-12-01T01:14:13;29.43;;;14.73;;
54993;SDS011;40891;47.242;8.648;2022-12-01T01:16:39;29.10;;;14.47;;
54993;SDS011;40891;47.242;8.648;2022-12-01T01:19:05;28.37;;;14.60;;
54993;SDS011;40891;47.242;8.648;2022-12-01T01:21:31;32.40;;;15.87;;
54993;SDS011;40891;47.242;8.648;2022-12-01T01:23:56;28.77;;;14.60;;
54993;SDS011;40891;47.242;8.648;2022-12-01T01:26:26;29.20;;;14.53;;
54993;SDS011;40891;47.242;8.648;2022-12-01T01:28:54;29.70;;;14.77;;
54993;SDS011;40891;47.242;8.648;2022-12-01T01:31:21;29.93;;;14.47;;
54993;SDS011;40891;47.242;8.648;2022-12-01T01:33:49;28.33;;;14.90;;
54993;SDS011;40891;47.242;8.648;2022-12-01T01:36:15;29.27;;;14.37;;
54993;SDS011;40891;47.242;8.648;2022-12-01T01:38:41;28.83;;;14.93;;
54993;SDS011;40891;47.242;8.648;2022-12-01T01:41:07;32.73;;;16.30;;
54993;SDS011;40891;47.242;8.648;2022-12-01T01:43:47;30.57;;;14.83;;
54993;SDS011;40891;47.242;8.648;2022-12-01T01:48:51;28.93;;;14.50;;
54993;SDS011;40891;47.242;8.648;2022-12-01T01:51:21;29.83;;;14.73;;
54993;SDS011;40891;47.242;8.648;2022-12-01T01:53:49;33.53;;;14.50;;
54993;SDS011;40891;47.242;8.648;2022-12-01T01:56:18;28.77;;;14.37;;
54993;SDS011;40891;47.242;8.648;2022-12-01T01:58:44;29.93;;;14.47;;
54993;SDS011;40891;47.242;8.648;2022-12-01T02:01:09;30.40;;;14.73;;
54993;SDS011;40891;47.242;8.648;2022-12-01T02:03:35;30.47;;;14.07;;
54993;SDS011;40891;47.242;8.648;2022-12-01T02:06:04;31.10;;;14.53;;
54993;SDS011;40891;47.242;8.648;2022-12-01T02:08:31;34.47;;;15.83;;
54993;SDS011;40891;47.242;8.648;2022-12-01T02:16:11;31.83;;;14.93;;
54993;SDS011;40891;47.242;8.648;2022-12-01T02:24:17;32.13;;;15.17;;
54993;SDS011;40891;47.242;8.648;2022-12-01T02:32:42;31.43;;;15.80;;
54993;SDS011;40891;47.242;8.648;2022-12-01T02:40:51;32.20;;;15.50;;
54993;SDS011;40891;47.242;8.648;2022-12-01T02:46:52;31.80;;;16.30;;
54993;SDS011;40891;47.242;8.648;2022-12-01T02:49:05;32.90;;;15.50;;
54993;SDS011;40891;47.242;8.648;2022-12-01T02:51:37;30.63;;;15.67;;
54993;SDS011;40891;47.242;8.648;2022-12-01T02:54:08;39.33;;;16.87;;
54993;SDS011;40891;47.242;8.648;2022-12-01T02:56:34;35.43;;;17.20;;
54993;SDS011;40891;47.242;8.648;2022-12-01T02:59:00;39.10;;;17.97;;
54993;SDS011;40891;47.242;8.648;2022-12-01T03:14:50;34.27;;;16.70;;
54993;SDS011;40891;47.242;8.648;2022-12-01T03:22:58;37.03;;;16.50;;
54993;SDS011;40891;47.242;8.648;2022-12-01T03:25:31;34.30;;;15.47;;
54993;SDS011;40891;47.242;8.648;2022-12-01T03:27:57;36.97;;;16.70;;
54993;SDS011;40891;47.242;8.648;2022-12-01T03:30:25;34.43;;;16.53;;
54993;SDS011;40891;47.242;8.648;2022-12-01T03:32:56;33.37;;;16.57;;
54993;SDS011;40891;47.242;8.648;2022-12-01T03:35:28;33.47;;;17.53;;
54993;SDS011;40891;47.242;8.648;2022-12-01T03:38:04;37.27;;;17.43;;
54993;SDS011;40891;47.242;8.648;2022-12-01T03:40:34;32.43;;;16.77;;
54993;SDS011;40891;47.242;8.648;2022-12-01T03:43:03;37.07;;;17.13;;
54993;SDS011;40891;47.242;8.648;2022-12-01T03:45:39;33.97;;;16.20;;
54993;SDS011;40891;47.242;8.648;2022-12-01T03:48:15;35.93;;;17.33;;
54993;SDS011;40891;47.242;8.648;2022-12-01T03:50:45;33.43;;;17.00;;
54993;SDS011;40891;47.242;8.648;2022-12-01T03:53:22;34.93;;;16.57;;
54993;SDS011;40891;47.242;8.648;2022-12-01T03:55:52;34.23;;;16.73;;
54993;SDS011;40891;47.242;8.648;2022-12-01T03:58:25;33.53;;;16.67;;
54993;SDS011;40891;47.242;8.648;2022-12-01T04:00:58;38.60;;;17.60;;
54993;SDS011;40891;47.242;8.648;2022-12-01T04:03:26;34.37;;;17.13;;
54993;SDS011;40891;47.242;8.648;2022-12-01T04:05:51;36.30;;;16.80;;
54993;SDS011;40891;47.242;8.648;2022-12-01T04:08:17;36.07;;;17.13;;
54993;SDS011;40891;47.242;8.648;2022-12-01T04:10:42;33.53;;;16.37;;
54993;SDS011;40891;47.242;8.648;2022-12-01T04:13:08;33.40;;;17.07;;
54993;SDS011;40891;47.242;8.648;2022-12-01T04:15:40;37.23;;;17.97;;
54993;SDS011;40891;47.242;8.648;2022-12-01T04:18:06;39.97;;;17.03;;
54993;SDS011;40891;47.242;8.648;2022-12-01T04:20:31;32.80;;;16.43;;
54993;SDS011;40891;47.242;8.648;2022-12-01T04:22:57;41.93;;;18.93;;
54993;SDS011;40891;47.242;8.648;2022-12-01T04:25:22;41.07;;;17.83;;
54993;SDS011;40891;47.242;8.648;2022-12-01T04:27:47;41.50;;;18.57;;
54993;SDS011;40891;47.242;8.648;2022-12-01T04:30:13;38.27;;;18.33;;
54993;SDS011;40891;47.242;8.648;2022-12-01T04:32:39;36.60;;;17.97;;
54993;SDS011;40891;47.242;8.648;2022-12-01T04:35:06;35.03;;;17.10;;
54993;SDS011;40891;47.242;8.648;2022-12-01T04:37:32;37.97;;;17.63;;
54993;SDS011;40891;47.242;8.648;2022-12-01T04:39:58;42.90;;;18.97;;
54993;SDS011;40891;47.242;8.648;2022-12-01T04:42:23;30.73;;;15.80;;
54993;SDS011;40891;47.242;8.648;2022-12-01T04:44:49;35.77;;;17.40;;
54993;SDS011;40891;47.242;8.648;2022-12-01T04:47:14;37.47;;;17.70;;
54993;SDS011;40891;47.242;8.648;2022-12-01T04:49:39;38.50;;;17.93;;
54993;SDS011;40891;47.242;8.648;2022-12-01T04:52:05;40.30;;;17.43;;
54993;SDS011;40891;47.242;8.648;2022-12-01T04:54:31;37.17;;;16.47;;
54993;SDS011;40891;47.242;8.648;2022-12-01T04:56:56;32.10;;;17.37;;
54993;SDS011;40891;47.242;8.648;2022-12-01T04:59:22;41.90;;;15.90;;
54993;SDS011;40891;47.242;8.648;2022-12-01T05:01:47;30.53;;;14.87;;
54993;SDS011;40891;47.242;8.648;2022-12-01T05:04:13;35.93;;;16.60;;
54993;SDS011;40891;47.242;8.648;2022-12-01T05:06:38;32.27;;;16.37;;
54993;SDS011;40891;47.242;8.648;2022-12-01T05:09:04;35.57;;;16.80;;
54993;SDS011;40891;47.242;8.648;2022-12-01T05:11:30;33.03;;;16.10;;
54993;SDS011;40891;47.242;8.648;2022-12-01T05:13:56;36.77;;;16.90;;
54993;SDS011;40891;47.242;8.648;2022-12-01T05:16:24;35.10;;;17.47;;
54993;SDS011;40891;47.242;8.648;2022-12-01T05:18:53;36.53;;;16.50;;
54993;SDS011;40891;47.242;8.648;2022-12-01T05:21:41;31.17;;;15.70;;
54993;SDS011;40891;47.242;8.648;2022-12-01T05:24:09;41.40;;;15.70;;
54993;SDS011;40891;47.242;8.648;2022-12-01T05:26:36;32.63;;;16.37;;
54993;SDS011;40891;47.242;8.648;2022-12-01T05:29:02;32.67;;;15.37;;
54993;SDS011;40891;47.242;8.648;2022-12-01T05:31:28;31.20;;;15.53;;
54993;SDS011;40891;47.242;8.648;2022-12-01T05:33:53;36.30;;;15.27;;
54993;SDS011;40891;47.242;8.648;2022-12-01T05:36:18;35.60;;;16.83;;
54993;SDS011;40891;47.242;8.648;2022-12-01T05:38:44;32.47;;;15.40;;
54993;SDS011;40891;47.242;8.648;2022-12-01T05:41:09;33.30;;;15.77;;
54993;SDS011;40891;47.242;8.648;2022-12-01T05:43:35;34.17;;;16.83;;
54993;SDS011;40891;47.242;8.648;2022-12-01T05:46:00;31.13;;;15.40;;
54993;SDS011;40891;47.242;8.648;2022-12-01T05:48:26;31.53;;;14.50;;
54993;SDS011;40891;47.242;8.648;2022-12-01T05:50:51;32.83;;;14.90;;
54993;SDS011;40891;47.242;8.648;2022-12-01T05:53:17;34.63;;;15.77;;
54993;SDS011;40891;47.242;8.648;2022-12-01T05:55:42;36.73;;;15.03;;
54993;SDS011;40891;47.242;8.648;2022-12-01T05:58:08;30.87;;;14.90;;
54993;SDS011;40891;47.242;8.648;2022-12-01T06:00:34;31.90;;;14.53;;
54993;SDS011;40891;47.242;8.648;2022-12-01T06:03:01;34.63;;;14.67;;
54993;SDS011;40891;47.242;8.648;2022-12-01T06:05:26;31.97;;;14.37;;
54993;SDS011;40891;47.242;8.648;2022-12-01T06:07:52;33.07;;;15.13;;
54993;SDS011;40891;47.242;8.648;2022-12-01T06:10:17;27.77;;;14.30;;
54993;SDS011;40891;47.242;8.648;2022-12-01T06:12:42;33.60;;;15.77;;
54993;SDS011;40891;47.242;8.648;2022-12-01T06:15:09;30.27;;;14.33;;
54993;SDS011;40891;47.242;8.648;2022-12-01T06:17:36;33.60;;;14.90;;
54993;SDS011;40891;47.242;8.648;2022-12-01T06:20:02;31.43;;;15.47;;
54993;SDS011;40891;47.242;8.648;2022-12-01T06:22:27;33.70;;;14.97;;
54993;SDS011;40891;47.242;8.648;2022-12-01T06:24:53;34.67;;;15.53;;
54993;SDS011;40891;47.242;8.648;2022-12-01T06:27:18;32.10;;;15.20;;
54993;SDS011;40891;47.242;8.648;2022-12-01T06:29:44;34.10;;;15.20;;
54993;SDS011;40891;47.242;8.648;2022-12-01T06:32:09;33.23;;;15.57;;
54993;SDS011;40891;47.242;8.648;2022-12-01T06:34:35;33.93;;;15.67;;
54993;SDS011;40891;47.242;8.648;2022-12-01T06:37:00;34.50;;;15.37;;
54993;SDS011;40891;47.242;8.648;2022-12-01T06:39:25;33.73;;;15.53;;
54993;SDS011;40891;47.242;8.648;2022-12-01T06:41:51;33.00;;;14.70;;
54993;SDS011;40891;47.242;8.648;2022-12-01T06:44:16;34.80;;;15.60;;
54993;SDS011;40891;47.242;8.648;2022-12-01T06:46:41;37.50;;;16.07;;
54993;SDS011;40891;47.242;8.648;2022-12-01T06:49:10;36.10;;;16.57;;
54993;SDS011;40891;47.242;8.648;2022-12-01T06:51:36;33.97;;;15.40;;
54993;SDS011;40891;47.242;8.648;2022-12-01T06:54:02;36.40;;;16.27;;
54993;SDS011;40891;47.242;8.648;2022-12-01T06:56:28;33.83;;;15.77;;
54993;SDS011;40891;47.242;8.648;2022-12-01T06:58:53;36.47;;;16.33;;
54993;SDS011;40891;47.242;8.648;2022-12-01T07:01:19;35.77;;;14.73;;
54993;SDS011;40891;47.242;8.648;2022-12-01T07:03:47;36.53;;;16.63;;
54993;SDS011;40891;47.242;8.648;2022-12-01T07:06:14;34.37;;;15.27;;
54993;SDS011;40891;47.242;8.648;2022-12-01T07:08:39;35.87;;;16.33;;
54993;SDS011;40891;47.242;8.648;2022-12-01T07:11:09;41.90;;;16.50;;
54993;SDS011;40891;47.242;8.648;2022-12-01T07:13:39;35.20;;;15.63;;
54993;SDS011;40891;47.242;8.648;2022-12-01T07:16:05;39.00;;;15.83;;
54993;SDS011;40891;47.242;8.648;2022-12-01T07:18:31;32.90;;;15.53;;
54993;SDS011;40891;47.242;8.648;2022-12-01T07:21:02;36.10;;;16.07;;
54993;SDS011;40891;47.242;8.648;2022-12-01T07:23:29;32.87;;;15.13;;
54993;SDS011;40891;47.242;8.648;2022-12-01T07:26:02;33.17;;;15.43;;
54993;SDS011;40891;47.242;8.648;2022-12-01T07:28:35;36.60;;;15.57;;
54993;SDS011;40891;47.242;8.648;2022-12-01T07:33:30;34.17;;;15.40;;
54993;SDS011;40891;47.242;8.648;2022-12-01T07:35:56;35.07;;;15.73;;
54993;SDS011;40891;47.242;8.648;2022-12-01T07:38:21;32.93;;;15.93;;
54993;SDS011;40891;47.242;8.648;2022-12-01T07:40:47;34.53;;;14.27;;
54993;SDS011;40891;47.242;8.648;2022-12-01T07:43:12;31.50;;;15.13;;
54993;SDS011;40891;47.242;8.648;2022-12-01T07:45:37;29.03;;;14.50;;
54993;SDS011;40891;47.242;8.648;2022-12-01T07:48:03;32.30;;;14.93;;
54993;SDS011;40891;47.242;8.648;2022-12-01T07:50:28;29.30;;;14.70;;
54993;SDS011;40891;47.242;8.648;2022-12-01T07:52:53;34.30;;;14.90;;
54993;SDS011;40891;47.242;8.648;2022-12-01T07:55:19;27.27;;;14.00;;
54993;SDS011;40891;47.242;8.648;2022-12-01T07:57:44;29.20;;;14.10;;
54993;SDS011;40891;47.242;8.648;2022-12-01T08:00:10;32.03;;;14.93;;
54993;SDS011;40891;47.242;8.648;2022-12-01T08:02:36;32.07;;;14.67;;
54993;SDS011;40891;47.242;8.648;2022-12-01T08:05:01;35.73;;;15.83;;
54993;SDS011;40891;47.242;8.648;2022-12-01T08:07:27;28.83;;;13.63;;
54993;SDS011;40891;47.242;8.648;2022-12-01T08:09:52;29.57;;;14.13;;
54993;SDS011;40891;47.242;8.648;2022-12-01T08:12:18;30.67;;;14.80;;
54993;SDS011;40891;47.242;8.648;2022-12-01T08:14:43;28.33;;;13.63;;
54993;SDS011;40891;47.242;8.648;2022-12-01T08:17:08;33.63;;;14.97;;
54993;SDS011;40891;47.242;8.648;2022-12-01T08:19:34;36.37;;;15.37;;
54993;SDS011;40891;47.242;8.648;2022-12-01T08:21:59;32.17;;;15.67;;
54993;SDS011;40891;47.242;8.648;2022-12-01T08:24:24;32.37;;;15.57;;
54993;SDS011;40891;47.242;8.648;2022-12-01T08:26:50;32.20;;;15.30;;
54993;SDS011;40891;47.242;8.648;2022-12-01T08:29:15;32.37;;;15.40;;
54993;SDS011;40891;47.242;8.648;2022-12-01T08:31:41;33.27;;;15.83;;
54993;SDS011;40891;47.242;8.648;2022-12-01T08:34:06;32.50;;;15.37;;
54993;SDS011;40891;47.242;8.648;2022-12-01T08:36:32;34.10;;;15.60;;
54993;SDS011;40891;47.242;8.648;2022-12-01T08:38:58;31.53;;;14.97;;
54993;SDS011;40891;47.242;8.648;2022-12-01T08:41:24;32.83;;;15.57;;
54993;SDS011;40891;47.242;8.648;2022-12-01T08:43:50;31.70;;;15.27;;
54993;SDS011;40891;47.242;8.648;2022-12-01T08:46:16;37.37;;;16.57;;
54993;SDS011;40891;47.242;8.648;2022-12-01T08:48:41;35.77;;;16.17;;
54993;SDS011;40891;47.242;8.648;2022-12-01T08:51:08;38.23;;;15.93;;
54993;SDS011;40891;47.242;8.648;2022-12-01T08:53:38;35.43;;;15.53;;
54993;SDS011;40891;47.242;8.648;2022-12-01T08:56:07;33.83;;;15.87;;
54993;SDS011;40891;47.242;8.648;2022-12-01T08:58:35;35.53;;;16.17;;
54993;SDS011;40891;47.242;8.648;2022-12-01T09:01:05;35.23;;;16.00;;
54993;SDS011;40891;47.242;8.648;2022-12-01T09:03:32;38.60;;;16.00;;
54993;SDS011;40891;47.242;8.648;2022-12-01T09:06:05;34.77;;;16.03;;
54993;SDS011;40891;47.242;8.648;2022-12-01T09:08:32;32.90;;;15.97;;
54993;SDS011;40891;47.242;8.648;2022-12-01T09:11:00;34.17;;;16.07;;
54993;SDS011;40891;47.242;8.648;2022-12-01T09:13:28;33.73;;;16.50;;
54993;SDS011;40891;47.242;8.648;2022-12-01T09:15:58;34.07;;;15.77;;
54993;SDS011;40891;47.242;8.648;2022-12-01T09:18:28;36.77;;;16.63;;
54993;SDS011;40891;47.242;8.648;2022-12-01T09:20:53;33.33;;;15.63;;
54993;SDS011;40891;47.242;8.648;2022-12-01T09:23:19;33.77;;;16.13;;
54993;SDS011;40891;47.242;8.648;2022-12-01T09:25:46;31.27;;;15.20;;
54993;SDS011;40891;47.242;8.648;2022-12-01T09:28:11;33.03;;;15.57;;
54993;SDS011;40891;47.242;8.648;2022-12-01T09:30:37;36.20;;;15.73;;
54993;SDS011;40891;47.242;8.648;2022-12-01T09:33:02;37.53;;;15.73;;
54993;SDS011;40891;47.242;8.648;2022-12-01T09:35:29;36.20;;;15.60;;
54993;SDS011;40891;47.242;8.648;2022-12-01T09:37:54;34.60;;;15.60;;
54993;SDS011;40891;47.242;8.648;2022-12-01T09:40:28;30.13;;;15.63;;
54993;SDS011;40891;47.242;8.648;2022-12-01T09:42:55;35.70;;;16.30;;
54993;SDS011;40891;47.242;8.648;2022-12-01T09:45:25;36.20;;;16.27;;
54993;SDS011;40891;47.242;8.648;2022-12-01T09:47:54;35.30;;;16.43;;
54993;SDS011;40891;47.242;8.648;2022-12-01T09:50:23;33.60;;;16.30;;
54993;SDS011;40891;47.242;8.648;2022-12-01T09:52:52;32.33;;;15.13;;
54993;SDS011;40891;47.242;8.648;2022-12-01T09:55:22;35.37;;;15.87;;
54993;SDS011;40891;47.242;8.648;2022-12-01T09:57:50;38.40;;;16.87;;
54993;SDS011;40891;47.242;8.648;2022-12-01T10:00:23;33.37;;;14.90;;
54993;SDS011;40891;47.242;8.648;2022-12-01T10:06:00;35.70;;;16.47;;
54993;SDS011;40891;47.242;8.648;2022-12-01T10:08:32;36.23;;;16.20;;
54993;SDS011;40891;47.242;8.648;2022-12-01T10:11:11;32.23;;;15.57;;
54993;SDS011;40891;47.242;8.648;2022-12-01T10:13:44;34.03;;;15.53;;
54993;SDS011;40891;47.242;8.648;2022-12-01T10:16:14;38.23;;;17.00;;
54993;SDS011;40891;47.242;8.648;2022-12-01T10:31:56;38.43;;;17.53;;
54993;SDS011;40891;47.242;8.648;2022-12-01T10:34:27;34.30;;;17.10;;
54993;SDS011;40891;47.242;8.648;2022-12-01T10:36:56;40.27;;;17.73;;
54993;SDS011;40891;47.242;8.648;2022-12-01T10:39:30;37.93;;;18.03;;
54993;SDS011;40891;47.242;8.648;2022-12-01T10:42:09;36.03;;;17.83;;
54993;SDS011;40891;47.242;8.648;2022-12-01T10:44:40;40.97;;;18.50;;
54993;SDS011;40891;47.242;8.648;2022-12-01T10:47:14;40.63;;;18.47;;
54993;SDS011;40891;47.242;8.648;2022-12-01T10:49:45;41.10;;;18.33;;
54993;SDS011;40891;47.242;8.648;2022-12-01T10:54:57;36.33;;;17.80;;
54993;SDS011;40891;47.242;8.648;2022-12-01T10:57:23;37.97;;;17.73;;
54993;SDS011;40891;47.242;8.648;2022-12-01T11:00:03;40.27;;;17.70;;
54993;SDS011;40891;47.242;8.648;2022-12-01T11:02:30;41.03;;;18.43;;
54993;SDS011;40891;47.242;8.648;2022-12-01T11:04:57;40.03;;;17.80;;
54993;SDS011;40891;47.242;8.648;2022-12-01T11:07:29;46.83;;;18.57;;
54993;SDS011;40891;47.242;8.648;2022-12-01T11:10:10;41.13;;;18.37;;
54993;SDS011;40891;47.242;8.648;2022-12-01T11:13:05;37.67;;;18.63;;
54993;SDS011;40891;47.242;8.648;2022-12-01T11:15:39;38.60;;;17.90;;
54993;SDS011;40891;47.242;8.648;2022-12-01T11:18:20;44.13;;;18.37;;
54993;SDS011;40891;47.242;8.648;2022-12-01T11:21:11;41.93;;;18.50;;
54993;SDS011;40891;47.242;8.648;2022-12-01T11:23:46;40.33;;;17.97;;
54993;SDS011;40891;47.242;8.648;2022-12-01T11:28:50;35.20;;;17.47;;
54993;SDS011;40891;47.242;8.648;2022-12-01T11:31:18;39.93;;;18.57;;
54993;SDS011;40891;47.242;8.648;2022-12-01T11:33:51;36.67;;;17.30;;
54993;SDS011;40891;47.242;8.648;2022-12-01T11:36:20;38.33;;;17.43;;
54993;SDS011;40891;47.242;8.648;2022-12-01T11:38:49;34.83;;;16.30;;
54993;SDS011;40891;47.242;8.648;2022-12-01T11:41:23;38.73;;;17.37;;
54993;SDS011;40891;47.242;8.648;2022-12-01T11:43:53;35.63;;;17.03;;
54993;SDS011;40891;47.242;8.648;2022-12-01T11:46:26;38.10;;;18.57;;
54993;SDS011;40891;47.242;8.648;2022-12-01T11:48:56;34.83;;;17.33;;
54993;SDS011;40891;47.242;8.648;2022-12-01T11:51:25;33.63;;;16.50;;
54993;SDS011;40891;47.242;8.648;2022-12-01T11:56:37;41.47;;;18.77;;
54993;SDS011;40891;47.242;8.648;2022-12-01T11:59:08;38.53;;;17.90;;
54993;SDS011;40891;47.242;8.648;2022-12-01T12:07:05;36.60;;;17.33;;
54993;SDS011;40891;47.242;8.648;2022-12-01T12:15:38;39.33;;;17.83;;
54993;SDS011;40891;47.242;8.648;2022-12-01T12:23:57;40.13;;;18.47;;
54993;SDS011;40891;47.242;8.648;2022-12-01T12:27:19;39.30;;;17.27;;
54993;SDS011;40891;47.242;8.648;2022-12-01T12:38:12;38.77;;;17.03;;
54993;SDS011;40891;47.242;8.648;2022-12-01T12:46:16;37.60;;;17.03;;
54993;SDS011;40891;47.242;8.648;2022-12-01T12:51:54;35.93;;;15.73;;
54993;SDS011;40891;47.242;8.648;2022-12-01T12:54:30;37.57;;;16.93;;
54993;SDS011;40891;47.242;8.648;2022-12-01T12:57:01;39.10;;;15.57;;
54993;SDS011;40891;47.242;8.648;2022-12-01T12:59:35;36.90;;;16.63;;
54993;SDS011;40891;47.242;8.648;2022-12-01T13:04:58;38.57;;;16.30;;
54993;SDS011;40891;47.242;8.648;2022-12-01T13:07:41;37.57;;;16.63;;
54993;SDS011;40891;47.242;8.648;2022-12-01T13:10:20;37.00;;;17.67;;
54993;SDS011;40891;47.242;8.648;2022-12-01T13:12:56;36.30;;;16.57;;
54993;SDS011;40891;47.242;8.648;2022-12-01T13:15:27;33.77;;;15.87;;
54993;SDS011;40891;47.242;8.648;2022-12-01T13:17:55;34.97;;;16.17;;
54993;SDS011;40891;47.242;8.648;2022-12-01T13:20:26;36.47;;;15.57;;
54993;SDS011;40891;47.242;8.648;2022-12-01T13:22:53;36.53;;;16.23;;
54993;SDS011;40891;47.242;8.648;2022-12-01T13:25:26;33.13;;;16.20;;
54993;SDS011;40891;47.242;8.648;2022-12-01T13:28:04;35.73;;;16.33;;
54993;SDS011;40891;47.242;8.648;2022-12-01T13:30:39;32.97;;;15.33;;
54993;SDS011;40891;47.242;8.648;2022-12-01T13:33:05;34.87;;;15.83;;
54993;SDS011;40891;47.242;8.648;2022-12-01T13:35:35;36.40;;;15.67;;
54993;SDS011;40891;47.242;8.648;2022-12-01T13:38:17;33.07;;;15.57;;
54993;SDS011;40891;47.242;8.648;2022-12-01T13:41:08;36.03;;;17.20;;
54993;SDS011;40891;47.242;8.648;2022-12-01T13:43:36;36.97;;;16.30;;
54993;SDS011;40891;47.242;8.648;2022-12-01T13:46:24;36.87;;;16.53;;
54993;SDS011;40891;47.242;8.648;2022-12-01T13:57:28;39.40;;;16.17;;
54993;SDS011;40891;47.242;8.648;2022-12-01T14:02:23;39.77;;;15.93;;
54993;SDS011;40891;47.242;8.648;2022-12-01T14:04:49;34.67;;;15.73;;
54993;SDS011;40891;47.242;8.648;2022-12-01T14:07:18;34.87;;;16.60;;
54993;SDS011;40891;47.242;8.648;2022-12-01T14:10:04;35.13;;;16.00;;
54993;SDS011;40891;47.242;8.648;2022-12-01T14:12:42;36.77;;;16.23;;
54993;SDS011;40891;47.242;8.648;2022-12-01T14:15:21;31.83;;;15.70;;
54993;SDS011;40891;47.242;8.648;2022-12-01T14:17:56;36.23;;;15.77;;
54993;SDS011;40891;47.242;8.648;2022-12-01T14:20:29;29.73;;;14.43;;
54993;SDS011;40891;47.242;8.648;2022-12-01T14:26:14;33.50;;;15.27;;
54993;SDS011;40891;47.242;8.648;2022-12-01T14:31:20;30.17;;;14.53;;
54993;SDS011;40891;47.242;8.648;2022-12-01T14:34:16;29.67;;;15.10;;
54993;SDS011;40891;47.242;8.648;2022-12-01T14:39:20;32.93;;;15.73;;
54993;SDS011;40891;47.242;8.648;2022-12-01T14:41:52;35.67;;;15.60;;
54993;SDS011;40891;47.242;8.648;2022-12-01T14:47:00;37.03;;;14.83;;
54993;SDS011;40891;47.242;8.648;2022-12-01T14:49:41;30.60;;;15.07;;
54993;SDS011;40891;47.242;8.648;2022-12-01T14:52:16;31.83;;;14.50;;
54993;SDS011;40891;47.242;8.648;2022-12-01T14:54:57;33.17;;;14.87;;
54993;SDS011;40891;47.242;8.648;2022-12-01T14:57:28;31.07;;;14.10;;
54993;SDS011;40891;47.242;8.648;2022-12-01T15:00:05;31.10;;;14.43;;
54993;SDS011;40891;47.242;8.648;2022-12-01T15:02:31;29.07;;;13.53;;
54993;SDS011;40891;47.242;8.648;2022-12-01T15:05:04;29.57;;;13.50;;
54993;SDS011;40891;47.242;8.648;2022-12-01T15:07:36;30.10;;;13.60;;
54993;SDS011;40891;47.242;8.648;2022-12-01T15:10:26;29.80;;;14.60;;
54993;SDS011;40891;47.242;8.648;2022-12-01T15:13:13;27.17;;;13.67;;
54993;SDS011;40891;47.242;8.648;2022-12-01T15:15:54;26.83;;;13.47;;
54993;SDS011;40891;47.242;8.648;2022-12-01T15:18:28;30.00;;;13.87;;
54993;SDS011;40891;47.242;8.648;2022-12-01T15:21:00;31.37;;;13.73;;
54993;SDS011;40891;47.242;8.648;2022-12-01T15:23:33;27.73;;;13.17;;
54993;SDS011;40891;47.242;8.648;2022-12-01T15:25:58;26.90;;;13.30;;
54993;SDS011;40891;47.242;8.648;2022-12-01T15:28:31;24.83;;;13.03;;
54993;SDS011;40891;47.242;8.648;2022-12-01T15:30:58;27.57;;;13.07;;
54993;SDS011;40891;47.242;8.648;2022-12-01T15:33:30;24.53;;;12.47;;
54993;SDS011;40891;47.242;8.648;2022-12-01T15:35:58;27.93;;;13.87;;
54993;SDS011;40891;47.242;8.648;2022-12-01T15:38:32;26.33;;;12.57;;
54993;SDS011;40891;47.242;8.648;2022-12-01T15:41:01;29.87;;;13.00;;
54993;SDS011;40891;47.242;8.648;2022-12-01T15:43:32;25.77;;;13.00;;
54993;SDS011;40891;47.242;8.648;2022-12-01T15:46:11;30.00;;;13.17;;
54993;SDS011;40891;47.242;8.648;2022-12-01T15:48:36;28.83;;;13.07;;
54993;SDS011;40891;47.242;8.648;2022-12-01T15:53:52;27.93;;;13.13;;
54993;SDS011;40891;47.242;8.648;2022-12-01T15:56:26;26.20;;;12.80;;
54993;SDS011;40891;47.242;8.648;2022-12-01T15:59:02;26.43;;;12.90;;
54993;SDS011;40891;47.242;8.648;2022-12-01T16:01:33;26.77;;;12.83;;
54993;SDS011;40891;47.242;8.648;2022-12-01T16:04:01;24.43;;;12.27;;
54993;SDS011;40891;47.242;8.648;2022-12-01T16:06:30;26.73;;;13.30;;
54993;SDS011;40891;47.242;8.648;2022-12-01T16:09:03;27.93;;;13.40;;
54993;SDS011;40891;47.242;8.648;2022-12-01T16:11:31;26.43;;;12.27;;
54993;SDS011;40891;47.242;8.648;2022-12-01T16:13:58;26.30;;;12.73;;
54993;SDS011;40891;47.242;8.648;2022-12-01T16:16:29;25.83;;;12.60;;
54993;SDS011;40891;47.242;8.648;2022-12-01T16:18:58;26.30;;;13.10;;
54993;SDS011;40891;47.242;8.648;2022-12-01T16:21:26;24.03;;;11.60;;
54993;SDS011;40891;47.242;8.648;2022-12-01T16:23:58;22.43;;;12.00;;
54993;SDS011;40891;47.242;8.648;2022-12-01T16:26:25;26.80;;;12.43;;
54993;SDS011;40891;47.242;8.648;2022-12-01T16:28:51;25.87;;;11.90;;
54993;SDS011;40891;47.242;8.648;2022-12-01T16:31:18;26.57;;;12.93;;
54993;SDS011;40891;47.242;8.648;2022-12-01T16:33:44;23.73;;;11.80;;
54993;SDS011;40891;47.242;8.648;2022-12-01T16:36:10;27.80;;;12.90;;
54993;SDS011;40891;47.242;8.648;2022-12-01T16:38:38;29.90;;;13.30;;
54993;SDS011;40891;47.242;8.648;2022-12-01T16:41:12;27.17;;;12.33;;
54993;SDS011;40891;47.242;8.648;2022-12-01T16:43:40;26.77;;;12.53;;
54993;SDS011;40891;47.242;8.648;2022-12-01T16:46:08;26.00;;;12.57;;
54993;SDS011;40891;47.242;8.648;2022-12-01T16:48:36;23.93;;;12.03;;